sensor_id;sensor_type;location;lat;lon;timestamp;temperature;humidity
14192;DHT22;7177;48.572;7.838;2023-05-23T00:00:35;17.50;99.90
14192;DHT22;7177;48.572;7.838;2023-05-23T00:03:01;17.50;99.90
14192;DHT22;7177;48.572;7.838;2023-05-23T00:05:27;17.60;99.90
14192;DHT22;7177;48.572;7.838;2023-05-23T00:07:53;17.60;99.90
14192;DHT22;7177;48.572;7.838;2023-05-23T00:10:19;17.60;99.90
14192;DHT22;7177;48.572;7.838;2023-05-23T00:12:44;17.60;99.90
14192;DHT22;7177;48.572;7.838;2023-05-23T00:15:12;17.60;99.90
14192;DHT22;7177;48.572;7.838;2023-05-23T00:17:38;17.60;99.90
14192;DHT22;7177;48.572;7.838;2023-05-23T00:20:07;17.60;99.90
14192;DHT22;7177;48.572;7.838;2023-05-23T00:22:37;17.60;99.90
14192;DHT22;7177;48.572;7.838;2023-05-23T00:25:08;17.60;99.90
14192;DHT22;7177;48.572;7.838;2023-05-23T00:27:34;17.60;99.90
14192;DHT22;7177;48.572;7.838;2023-05-23T00:30:00;17.60;99.90
14192;DHT22;7177;48.572;7.838;2023-05-23T00:32:25;17.60;99.90
14192;DHT22;7177;48.572;7.838;2023-05-23T00:34:51;17.60;99.90
14192;DHT22;7177;48.572;7.838;2023-05-23T00:37:18;17.60;99.90
14192;DHT22;7177;48.572;7.838;2023-05-23T00:39:44;17.50;99.90
14192;DHT22;7177;48.572;7.838;2023-05-23T00:42:10;17.50;99.90
14192;DHT22;7177;48.572;7.838;2023-05-23T00:44:35;17.40;99.90
14192;DHT22;7177;48.572;7.838;2023-05-23T00:47:01;17.40;99.90
14192;DHT22;7177;48.572;7.838;2023-05-23T00:49:27;17.30;99.90
14192;DHT22;7177;48.572;7.838;2023-05-23T00:51:53;17.20;99.90
14192;DHT22;7177;48.572;7.838;2023-05-23T00:54:28;17.10;99.90
14192;DHT22;7177;48.572;7.838;2023-05-23T00:56:55;17.10;99.90
14192;DHT22;7177;48.572;7.838;2023-05-23T00:59:23;17.20;99.90
14192;DHT22;7177;48.572;7.838;2023-05-23T01:01:49;17.20;99.90
14192;DHT22;7177;48.572;7.838;2023-05-23T01:04:16;17.20;99.90
14192;DHT22;7177;48.572;7.838;2023-05-23T01:06:41;17.20;99.90
14192;DHT22;7177;48.572;7.838;2023-05-23T01:09:18;17.20;99.90
14192;DHT22;7177;48.572;7.838;2023-05-23T01:14:23;17.10;99.90
14192;DHT22;7177;48.572;7.838;2023-05-23T01:16:56;17.10;99.90
14192;DHT22;7177;48.572;7.838;2023-05-23T01:19:54;17.00;99.90
14192;DHT22;7177;48.572;7.838;2023-05-23T01:25:21;16.90;99.90
14192;DHT22;7177;48.572;7.838;2023-05-23T01:27:54;16.80;99.90
14192;DHT22;7177;48.572;7.838;2023-05-23T01:30:23;16.80;99.90
14192;DHT22;7177;48.572;7.838;2023-05-23T01:32:52;16.80;99.90
14192;DHT22;7177;48.572;7.838;2023-05-23T01:35:24;16.80;99.90
14192;DHT22;7177;48.572;7.838;2023-05-23T01:37:54;16.80;99.90
14192;DHT22;7177;48.572;7.838;2023-05-23T01:40:21;16.80;99.90
14192;DHT22;7177;48.572;7.838;2023-05-23T01:42:46;16.70;99.90
14192;DHT22;7177;48.572;7.838;2023-05-23T01:45:13;16.70;99.90
14192;DHT22;7177;48.572;7.838;2023-05-23T01:47:40;16.60;99.90
14192;DHT22;7177;48.572;7.838;2023-05-23T01:50:07;16.50;99.90
14192;DHT22;7177;48.572;7.838;2023-05-23T01:52:34;16.70;99.90
14192;DHT22;7177;48.572;7.838;2023-05-23T01:55:00;16.40;99.90
14192;DHT22;7177;48.572;7.838;2023-05-23T01:57:28;16.40;99.90
14192;DHT22;7177;48.572;7.838;2023-05-23T01:59:54;16.40;99.90
14192;DHT22;7177;48.572;7.838;2023-05-23T02:02:20;16.40;99.90
14192;DHT22;7177;48.572;7.838;2023-05-23T02:04:48;16.40;99.90
14192;DHT22;7177;48.572;7.838;2023-05-23T02:07:13;16.40;99.90
14192;DHT22;7177;48.572;7.838;2023-05-23T02:09:39;16.40;99.90
14192;DHT22;7177;48.572;7.838;2023-05-23T02:12:05;16.40;99.90
14192;DHT22;7177;48.572;7.838;2023-05-23T02:14:30;16.40;99.90
14192;DHT22;7177;48.572;7.838;2023-05-23T02:16:56;16.40;99.90
14192;DHT22;7177;48.572;7.838;2023-05-23T02:19:21;16.50;99.90
14192;DHT22;7177;48.572;7.838;2023-05-23T02:21:47;16.60;99.90
14192;DHT22;7177;48.572;7.838;2023-05-23T02:24:12;16.60;99.90
14192;DHT22;7177;48.572;7.838;2023-05-23T02:26:38;16.70;99.90
14192;DHT22;7177;48.572;7.838;2023-05-23T02:29:03;16.70;99.90
14192;DHT22;7177;48.572;7.838;2023-05-23T02:31:29;16.70;99.90
14192;DHT22;7177;48.572;7.838;2023-05-23T02:33:55;16.80;99.90
14192;DHT22;7177;48.572;7.838;2023-05-23T02:36:21;16.90;99.90
14192;DHT22;7177;48.572;7.838;2023-05-23T02:38:46;16.90;99.90
14192;DHT22;7177;48.572;7.838;2023-05-23T02:41:12;16.90;99.90
14192;DHT22;7177;48.572;7.838;2023-05-23T02:43:38;16.90;99.90
14192;DHT22;7177;48.572;7.838;2023-05-23T02:46:03;17.00;99.90
14192;DHT22;7177;48.572;7.838;2023-05-23T02:48:29;17.00;99.90
14192;DHT22;7177;48.572;7.838;2023-05-23T02:50:54;17.00;99.90
14192;DHT22;7177;48.572;7.838;2023-05-23T02:53:20;17.00;99.90
14192;DHT22;7177;48.572;7.838;2023-05-23T02:55:46;17.00;99.90
14192;DHT22;7177;48.572;7.838;2023-05-23T02:58:12;17.10;99.90
14192;DHT22;7177;48.572;7.838;2023-05-23T03:00:37;17.10;99.90
14192;DHT22;7177;48.572;7.838;2023-05-23T03:03:03;17.10;99.90
14192;DHT22;7177;48.572;7.838;2023-05-23T03:05:29;17.20;99.90
14192;DHT22;7177;48.572;7.838;2023-05-23T03:07:54;17.20;99.90
14192;DHT22;7177;48.572;7.838;2023-05-23T03:10:20;17.20;99.90
14192;DHT22;7177;48.572;7.838;2023-05-23T03:12:46;17.20;99.90
14192;DHT22;7177;48.572;7.838;2023-05-23T03:15:11;17.20;99.90
14192;DHT22;7177;48.572;7.838;2023-05-23T03:17:37;17.20;99.90
14192;DHT22;7177;48.572;7.838;2023-05-23T03:20:03;17.20;99.90
14192;DHT22;7177;48.572;7.838;2023-05-23T03:22:29;17.20;99.90
14192;DHT22;7177;48.572;7.838;2023-05-23T03:24:55;17.20;99.90
14192;DHT22;7177;48.572;7.838;2023-05-23T03:27:20;17.20;99.90
14192;DHT22;7177;48.572;7.838;2023-05-23T03:29:46;17.20;99.90
14192;DHT22;7177;48.572;7.838;2023-05-23T03:32:12;17.20;99.90
14192;DHT22;7177;48.572;7.838;2023-05-23T03:34:38;17.20;99.90
14192;DHT22;7177;48.572;7.838;2023-05-23T03:37:03;17.10;99.90
14192;DHT22;7177;48.572;7.838;2023-05-23T03:39:29;17.10;99.90
14192;DHT22;7177;48.572;7.838;2023-05-23T03:41:55;17.00;99.90
14192;DHT22;7177;48.572;7.838;2023-05-23T03:44:20;17.00;99.90
14192;DHT22;7177;48.572;7.838;2023-05-23T03:46:46;17.00;99.90
14192;DHT22;7177;48.572;7.838;2023-05-23T03:49:12;17.00;99.90
14192;DHT22;7177;48.572;7.838;2023-05-23T03:51:37;17.00;99.90
14192;DHT22;7177;48.572;7.838;2023-05-23T03:54:02;17.00;99.90
14192;DHT22;7177;48.572;7.838;2023-05-23T03:56:28;17.00;99.90
14192;DHT22;7177;48.572;7.838;2023-05-23T03:58:53;17.10;99.90
14192;DHT22;7177;48.572;7.838;2023-05-23T04:01:19;17.30;99.90
14192;DHT22;7177;48.572;7.838;2023-05-23T04:06:12;17.50;99.90
14192;DHT22;7177;48.572;7.838;2023-05-23T04:08:38;17.50;99.90
14192;DHT22;7177;48.572;7.838;2023-05-23T04:11:06;17.60;99.90
14192;DHT22;7177;48.572;7.838;2023-05-23T04:13:31;17.60;99.90
14192;DHT22;7177;48.572;7.838;2023-05-23T04:16:00;17.60;99.90
14192;DHT22;7177;48.572;7.838;2023-05-23T04:18:26;17.70;99.90
14192;DHT22;7177;48.572;7.838;2023-05-23T04:20:53;17.60;99.90
14192;DHT22;7177;48.572;7.838;2023-05-23T04:23:18;17.60;99.90
14192;DHT22;7177;48.572;7.838;2023-05-23T04:25:44;17.50;99.90
14192;DHT22;7177;48.572;7.838;2023-05-23T04:28:10;17.50;99.90
14192;DHT22;7177;48.572;7.838;2023-05-23T04:30:36;17.50;99.90
14192;DHT22;7177;48.572;7.838;2023-05-23T04:33:01;17.40;99.90
14192;DHT22;7177;48.572;7.838;2023-05-23T04:35:27;17.40;99.90
14192;DHT22;7177;48.572;7.838;2023-05-23T04:37:54;17.40;99.90
14192;DHT22;7177;48.572;7.838;2023-05-23T04:40:24;17.50;99.90
14192;DHT22;7177;48.572;7.838;2023-05-23T04:42:49;17.60;99.90
14192;DHT22;7177;48.572;7.838;2023-05-23T04:45:18;17.70;99.90
14192;DHT22;7177;48.572;7.838;2023-05-23T04:47:44;17.80;99.90
14192;DHT22;7177;48.572;7.838;2023-05-23T04:50:10;17.90;99.90
14192;DHT22;7177;48.572;7.838;2023-05-23T04:52:35;18.00;99.90
14192;DHT22;7177;48.572;7.838;2023-05-23T04:55:01;18.00;99.90
14192;DHT22;7177;48.572;7.838;2023-05-23T04:57:27;18.10;99.90
14192;DHT22;7177;48.572;7.838;2023-05-23T04:59:52;18.20;99.90
14192;DHT22;7177;48.572;7.838;2023-05-23T05:02:18;18.20;99.90
14192;DHT22;7177;48.572;7.838;2023-05-23T05:04:43;18.30;99.90
14192;DHT22;7177;48.572;7.838;2023-05-23T05:07:09;18.30;99.90
14192;DHT22;7177;48.572;7.838;2023-05-23T05:09:35;18.30;99.90
14192;DHT22;7177;48.572;7.838;2023-05-23T05:12:01;18.20;99.90
14192;DHT22;7177;48.572;7.838;2023-05-23T05:14:26;18.20;99.90
14192;DHT22;7177;48.572;7.838;2023-05-23T05:16:52;18.10;99.90
14192;DHT22;7177;48.572;7.838;2023-05-23T05:19:19;18.00;99.90
14192;DHT22;7177;48.572;7.838;2023-05-23T05:21:45;17.90;99.90
14192;DHT22;7177;48.572;7.838;2023-05-23T05:24:11;17.90;99.90
14192;DHT22;7177;48.572;7.838;2023-05-23T05:26:37;17.80;99.90
14192;DHT22;7177;48.572;7.838;2023-05-23T05:29:02;17.80;99.90
14192;DHT22;7177;48.572;7.838;2023-05-23T05:31:28;17.70;99.90
14192;DHT22;7177;48.572;7.838;2023-05-23T05:33:54;17.70;99.90
14192;DHT22;7177;48.572;7.838;2023-05-23T05:36:19;17.70;99.90
14192;DHT22;7177;48.572;7.838;2023-05-23T05:38:46;17.70;99.90
14192;DHT22;7177;48.572;7.838;2023-05-23T05:41:11;17.80;99.90
14192;DHT22;7177;48.572;7.838;2023-05-23T05:43:37;17.80;99.90
14192;DHT22;7177;48.572;7.838;2023-05-23T05:46:03;17.90;99.90
14192;DHT22;7177;48.572;7.838;2023-05-23T05:48:28;18.00;99.90
14192;DHT22;7177;48.572;7.838;2023-05-23T05:50:54;18.10;99.90
14192;DHT22;7177;48.572;7.838;2023-05-23T05:53:20;18.20;99.90
14192;DHT22;7177;48.572;7.838;2023-05-23T05:55:45;18.20;99.90
14192;DHT22;7177;48.572;7.838;2023-05-23T05:58:11;18.20;99.90
14192;DHT22;7177;48.572;7.838;2023-05-23T06:00:36;18.30;99.90
14192;DHT22;7177;48.572;7.838;2023-05-23T06:03:07;18.30;99.90
14192;DHT22;7177;48.572;7.838;2023-05-23T06:05:33;18.30;99.90
14192;DHT22;7177;48.572;7.838;2023-05-23T06:07:58;18.40;99.90
14192;DHT22;7177;48.572;7.838;2023-05-23T06:10:24;18.40;99.90
14192;DHT22;7177;48.572;7.838;2023-05-23T06:12:50;18.30;99.90
14192;DHT22;7177;48.572;7.838;2023-05-23T06:15:15;18.50;99.90
14192;DHT22;7177;48.572;7.838;2023-05-23T06:17:41;18.50;99.90
14192;DHT22;7177;48.572;7.838;2023-05-23T06:20:07;18.50;99.90
14192;DHT22;7177;48.572;7.838;2023-05-23T06:22:33;18.60;99.90
14192;DHT22;7177;48.572;7.838;2023-05-23T06:24:58;18.50;99.90
14192;DHT22;7177;48.572;7.838;2023-05-23T06:27:24;18.50;99.90
14192;DHT22;7177;48.572;7.838;2023-05-23T06:29:49;18.50;99.90
14192;DHT22;7177;48.572;7.838;2023-05-23T06:32:15;18.50;99.90
14192;DHT22;7177;48.572;7.838;2023-05-23T06:34:40;18.40;99.90
14192;DHT22;7177;48.572;7.838;2023-05-23T06:37:06;18.50;99.90
14192;DHT22;7177;48.572;7.838;2023-05-23T06:39:31;18.50;99.90
14192;DHT22;7177;48.572;7.838;2023-05-23T06:41:57;18.70;99.90
14192;DHT22;7177;48.572;7.838;2023-05-23T06:44:22;19.00;99.90
14192;DHT22;7177;48.572;7.838;2023-05-23T06:46:48;19.20;99.90
14192;DHT22;7177;48.572;7.838;2023-05-23T06:49:14;19.20;99.90
14192;DHT22;7177;48.572;7.838;2023-05-23T06:51:40;19.20;99.90
14192;DHT22;7177;48.572;7.838;2023-05-23T06:54:06;19.30;99.90
14192;DHT22;7177;48.572;7.838;2023-05-23T06:56:31;19.30;99.90
14192;DHT22;7177;48.572;7.838;2023-05-23T06:58:57;19.40;99.90
14192;DHT22;7177;48.572;7.838;2023-05-23T07:01:22;19.40;99.90
14192;DHT22;7177;48.572;7.838;2023-05-23T07:03:48;19.50;99.90
14192;DHT22;7177;48.572;7.838;2023-05-23T07:06:13;19.60;99.90
14192;DHT22;7177;48.572;7.838;2023-05-23T07:08:39;19.50;99.90
14192;DHT22;7177;48.572;7.838;2023-05-23T07:11:05;19.40;99.90
14192;DHT22;7177;48.572;7.838;2023-05-23T07:13:31;19.30;99.90
14192;DHT22;7177;48.572;7.838;2023-05-23T07:15:57;19.20;99.90
14192;DHT22;7177;48.572;7.838;2023-05-23T07:18:23;19.10;99.90
14192;DHT22;7177;48.572;7.838;2023-05-23T07:20:48;19.20;99.90
14192;DHT22;7177;48.572;7.838;2023-05-23T07:23:14;19.20;99.90
14192;DHT22;7177;48.572;7.838;2023-05-23T07:25:40;19.20;99.90
14192;DHT22;7177;48.572;7.838;2023-05-23T07:28:07;19.30;99.90
14192;DHT22;7177;48.572;7.838;2023-05-23T07:30:33;19.30;99.90
14192;DHT22;7177;48.572;7.838;2023-05-23T07:32:58;19.30;99.90
14192;DHT22;7177;48.572;7.838;2023-05-23T07:35:24;19.30;99.90
14192;DHT22;7177;48.572;7.838;2023-05-23T07:37:53;19.30;99.90
14192;DHT22;7177;48.572;7.838;2023-05-23T07:40:20;19.20;99.90
14192;DHT22;7177;48.572;7.838;2023-05-23T07:42:46;19.20;99.90
14192;DHT22;7177;48.572;7.838;2023-05-23T07:45:12;19.20;99.90
14192;DHT22;7177;48.572;7.838;2023-05-23T07:47:38;19.40;99.90
14192;DHT22;7177;48.572;7.838;2023-05-23T07:50:04;19.40;99.90
14192;DHT22;7177;48.572;7.838;2023-05-23T07:52:30;19.50;99.90
14192;DHT22;7177;48.572;7.838;2023-05-23T07:54:57;19.50;99.90
14192;DHT22;7177;48.572;7.838;2023-05-23T07:57:23;19.60;99.90
14192;DHT22;7177;48.572;7.838;2023-05-23T07:59:52;19.70;99.90
14192;DHT22;7177;48.572;7.838;2023-05-23T08:02:18;19.70;99.90
14192;DHT22;7177;48.572;7.838;2023-05-23T08:04:44;19.90;99.90
14192;DHT22;7177;48.572;7.838;2023-05-23T08:07:11;20.10;99.90
14192;DHT22;7177;48.572;7.838;2023-05-23T08:09:37;20.30;99.90
14192;DHT22;7177;48.572;7.838;2023-05-23T08:12:05;20.40;99.90
14192;DHT22;7177;48.572;7.838;2023-05-23T08:14:30;20.60;99.90
14192;DHT22;7177;48.572;7.838;2023-05-23T08:16:56;20.70;99.90
14192;DHT22;7177;48.572;7.838;2023-05-23T08:19:22;20.60;99.90
14192;DHT22;7177;48.572;7.838;2023-05-23T08:21:47;20.50;99.90
14192;DHT22;7177;48.572;7.838;2023-05-23T08:24:13;20.40;99.90
14192;DHT22;7177;48.572;7.838;2023-05-23T08:26:39;20.40;99.90
14192;DHT22;7177;48.572;7.838;2023-05-23T08:29:04;20.30;99.90
14192;DHT22;7177;48.572;7.838;2023-05-23T08:31:30;20.30;99.90
14192;DHT22;7177;48.572;7.838;2023-05-23T08:33:57;20.20;99.90
14192;DHT22;7177;48.572;7.838;2023-05-23T08:36:23;20.10;99.90
14192;DHT22;7177;48.572;7.838;2023-05-23T08:38:49;19.90;99.90
14192;DHT22;7177;48.572;7.838;2023-05-23T08:41:18;19.90;99.90
14192;DHT22;7177;48.572;7.838;2023-05-23T08:43:44;19.80;99.90
14192;DHT22;7177;48.572;7.838;2023-05-23T08:46:11;19.50;99.90
14192;DHT22;7177;48.572;7.838;2023-05-23T08:48:37;19.10;99.90
14192;DHT22;7177;48.572;7.838;2023-05-23T08:51:04;19.00;99.90
14192;DHT22;7177;48.572;7.838;2023-05-23T08:53:30;18.90;99.90
14192;DHT22;7177;48.572;7.838;2023-05-23T08:55:58;18.80;99.90
14192;DHT22;7177;48.572;7.838;2023-05-23T08:58:29;18.70;99.90
14192;DHT22;7177;48.572;7.838;2023-05-23T09:00:54;18.60;99.90
14192;DHT22;7177;48.572;7.838;2023-05-23T09:03:21;18.60;99.90
14192;DHT22;7177;48.572;7.838;2023-05-23T09:05:48;18.60;99.90
14192;DHT22;7177;48.572;7.838;2023-05-23T09:08:15;18.70;99.90
14192;DHT22;7177;48.572;7.838;2023-05-23T09:10:41;18.60;99.90
14192;DHT22;7177;48.572;7.838;2023-05-23T09:13:07;18.50;99.90
14192;DHT22;7177;48.572;7.838;2023-05-23T09:15:34;18.50;99.90
14192;DHT22;7177;48.572;7.838;2023-05-23T09:18:00;18.50;99.90
14192;DHT22;7177;48.572;7.838;2023-05-23T09:20:28;18.40;99.90
14192;DHT22;7177;48.572;7.838;2023-05-23T09:22:55;18.30;99.90
14192;DHT22;7177;48.572;7.838;2023-05-23T09:25:20;18.30;99.90
14192;DHT22;7177;48.572;7.838;2023-05-23T09:27:46;18.20;99.90
14192;DHT22;7177;48.572;7.838;2023-05-23T09:30:12;18.10;99.90
14192;DHT22;7177;48.572;7.838;2023-05-23T09:32:38;18.10;99.90
14192;DHT22;7177;48.572;7.838;2023-05-23T09:35:05;18.00;99.90
14192;DHT22;7177;48.572;7.838;2023-05-23T09:37:38;18.00;99.90
14192;DHT22;7177;48.572;7.838;2023-05-23T09:40:09;18.00;99.90
14192;DHT22;7177;48.572;7.838;2023-05-23T09:42:36;18.00;99.90
14192;DHT22;7177;48.572;7.838;2023-05-23T09:45:05;18.00;99.90
14192;DHT22;7177;48.572;7.838;2023-05-23T09:47:31;18.00;99.90
14192;DHT22;7177;48.572;7.838;2023-05-23T09:49:56;18.00;99.90
14192;DHT22;7177;48.572;7.838;2023-05-23T09:52:22;18.00;99.90
14192;DHT22;7177;48.572;7.838;2023-05-23T09:54:48;17.90;99.90
14192;DHT22;7177;48.572;7.838;2023-05-23T09:57:14;17.90;99.90
14192;DHT22;7177;48.572;7.838;2023-05-23T09:59:51;17.90;99.90
14192;DHT22;7177;48.572;7.838;2023-05-23T10:02:49;17.90;99.90
14192;DHT22;7177;48.572;7.838;2023-05-23T10:05:08;18.00;99.90
14192;DHT22;7177;48.572;7.838;2023-05-23T10:07:37;18.10;99.90
14192;DHT22;7177;48.572;7.838;2023-05-23T10:10:05;18.10;99.90
14192;DHT22;7177;48.572;7.838;2023-05-23T10:12:50;18.10;99.90
14192;DHT22;7177;48.572;7.838;2023-05-23T10:15:17;18.30;99.90
14192;DHT22;7177;48.572;7.838;2023-05-23T10:18:11;18.30;99.90
14192;DHT22;7177;48.572;7.838;2023-05-23T10:20:42;18.40;99.90
14192;DHT22;7177;48.572;7.838;2023-05-23T10:23:12;18.30;99.90
14192;DHT22;7177;48.572;7.838;2023-05-23T10:25:38;18.40;99.90
14192;DHT22;7177;48.572;7.838;2023-05-23T10:28:04;18.40;99.90
14192;DHT22;7177;48.572;7.838;2023-05-23T10:30:30;18.40;99.90
14192;DHT22;7177;48.572;7.838;2023-05-23T10:32:56;18.50;99.90
14192;DHT22;7177;48.572;7.838;2023-05-23T10:35:38;18.50;99.90
14192;DHT22;7177;48.572;7.838;2023-05-23T10:38:25;18.50;99.90
14192;DHT22;7177;48.572;7.838;2023-05-23T10:41:11;18.70;99.90
14192;DHT22;7177;48.572;7.838;2023-05-23T10:44:01;18.80;99.90
14192;DHT22;7177;48.572;7.838;2023-05-23T10:46:53;19.10;99.90
14192;DHT22;7177;48.572;7.838;2023-05-23T10:49:39;19.40;99.90
14192;DHT22;7177;48.572;7.838;2023-05-23T10:52:06;19.60;99.90
14192;DHT22;7177;48.572;7.838;2023-05-23T10:54:36;19.90;99.90
14192;DHT22;7177;48.572;7.838;2023-05-23T10:57:06;20.00;99.90
14192;DHT22;7177;48.572;7.838;2023-05-23T10:59:32;20.10;99.90
14192;DHT22;7177;48.572;7.838;2023-05-23T11:01:58;20.10;99.90
14192;DHT22;7177;48.572;7.838;2023-05-23T11:04:26;20.10;99.90
14192;DHT22;7177;48.572;7.838;2023-05-23T11:06:53;20.20;99.90
14192;DHT22;7177;48.572;7.838;2023-05-23T11:09:19;20.30;99.90
14192;DHT22;7177;48.572;7.838;2023-05-23T11:11:58;20.70;99.90
14192;DHT22;7177;48.572;7.838;2023-05-23T11:14:34;21.20;99.90
14192;DHT22;7177;48.572;7.838;2023-05-23T11:17:15;21.90;99.90
14192;DHT22;7177;48.572;7.838;2023-05-23T11:20:07;21.90;99.90
14192;DHT22;7177;48.572;7.838;2023-05-23T11:22:34;21.70;99.90
14192;DHT22;7177;48.572;7.838;2023-05-23T11:25:05;21.50;99.90
14192;DHT22;7177;48.572;7.838;2023-05-23T11:27:32;21.30;99.90
14192;DHT22;7177;48.572;7.838;2023-05-23T11:30:08;21.60;99.90
14192;DHT22;7177;48.572;7.838;2023-05-23T11:32:35;21.50;99.90
14192;DHT22;7177;48.572;7.838;2023-05-23T11:35:03;21.90;99.90
14192;DHT22;7177;48.572;7.838;2023-05-23T11:37:29;21.80;99.90
14192;DHT22;7177;48.572;7.838;2023-05-23T11:39:56;21.80;99.90
14192;DHT22;7177;48.572;7.838;2023-05-23T11:42:22;21.90;99.90
14192;DHT22;7177;48.572;7.838;2023-05-23T11:44:49;22.30;99.90
14192;DHT22;7177;48.572;7.838;2023-05-23T11:47:16;22.40;99.90
14192;DHT22;7177;48.572;7.838;2023-05-23T11:49:46;22.70;99.90
14192;DHT22;7177;48.572;7.838;2023-05-23T11:52:12;22.70;99.90
14192;DHT22;7177;48.572;7.838;2023-05-23T11:54:41;22.10;99.90
14192;DHT22;7177;48.572;7.838;2023-05-23T11:57:12;21.60;99.90
14192;DHT22;7177;48.572;7.838;2023-05-23T11:59:38;21.50;99.90
14192;DHT22;7177;48.572;7.838;2023-05-23T12:02:05;21.40;99.90
14192;DHT22;7177;48.572;7.838;2023-05-23T12:04:34;21.40;99.90
14192;DHT22;7177;48.572;7.838;2023-05-23T12:07:03;21.30;99.90
14192;DHT22;7177;48.572;7.838;2023-05-23T12:09:29;21.40;99.90
14192;DHT22;7177;48.572;7.838;2023-05-23T12:11:54;21.40;99.90
14192;DHT22;7177;48.572;7.838;2023-05-23T12:14:20;21.40;99.90
14192;DHT22;7177;48.572;7.838;2023-05-23T12:16:46;21.70;99.90
14192;DHT22;7177;48.572;7.838;2023-05-23T12:19:12;22.00;99.90
14192;DHT22;7177;48.572;7.838;2023-05-23T12:21:42;22.10;99.90
14192;DHT22;7177;48.572;7.838;2023-05-23T12:24:22;22.10;99.90
14192;DHT22;7177;48.572;7.838;2023-05-23T12:26:54;22.10;99.90
14192;DHT22;7177;48.572;7.838;2023-05-23T12:29:31;22.10;99.90
14192;DHT22;7177;48.572;7.838;2023-05-23T12:31:57;22.10;99.90
14192;DHT22;7177;48.572;7.838;2023-05-23T12:34:23;21.70;99.90
14192;DHT22;7177;48.572;7.838;2023-05-23T12:36:49;21.60;99.90
14192;DHT22;7177;48.572;7.838;2023-05-23T12:39:17;21.40;99.90
14192;DHT22;7177;48.572;7.838;2023-05-23T12:41:48;21.50;99.90
14192;DHT22;7177;48.572;7.838;2023-05-23T12:44:16;21.70;99.90
14192;DHT22;7177;48.572;7.838;2023-05-23T12:46:42;21.80;99.90
14192;DHT22;7177;48.572;7.838;2023-05-23T12:49:07;22.10;99.90
14192;DHT22;7177;48.572;7.838;2023-05-23T12:51:33;22.10;99.90
14192;DHT22;7177;48.572;7.838;2023-05-23T12:53:59;22.40;99.90
14192;DHT22;7177;48.572;7.838;2023-05-23T12:56:25;22.50;99.90
14192;DHT22;7177;48.572;7.838;2023-05-23T12:58:51;22.90;99.90
14192;DHT22;7177;48.572;7.838;2023-05-23T13:01:18;22.90;99.90
14192;DHT22;7177;48.572;7.838;2023-05-23T13:03:44;23.30;99.90
14192;DHT22;7177;48.572;7.838;2023-05-23T13:06:09;23.50;99.90
14192;DHT22;7177;48.572;7.838;2023-05-23T13:08:35;23.80;99.90
14192;DHT22;7177;48.572;7.838;2023-05-23T13:11:01;24.20;99.90
14192;DHT22;7177;48.572;7.838;2023-05-23T13:13:27;24.60;99.90
14192;DHT22;7177;48.572;7.838;2023-05-23T13:15:52;25.30;99.90
14192;DHT22;7177;48.572;7.838;2023-05-23T13:18:18;25.90;99.90
14192;DHT22;7177;48.572;7.838;2023-05-23T13:20:44;26.30;99.90
14192;DHT22;7177;48.572;7.838;2023-05-23T13:23:10;26.20;99.90
14192;DHT22;7177;48.572;7.838;2023-05-23T13:25:36;26.30;99.90
14192;DHT22;7177;48.572;7.838;2023-05-23T13:28:01;26.70;99.90
14192;DHT22;7177;48.572;7.838;2023-05-23T13:30:28;26.90;99.90
14192;DHT22;7177;48.572;7.838;2023-05-23T13:32:53;27.30;99.90
14192;DHT22;7177;48.572;7.838;2023-05-23T13:35:19;27.30;99.90
14192;DHT22;7177;48.572;7.838;2023-05-23T13:37:45;26.50;99.90
14192;DHT22;7177;48.572;7.838;2023-05-23T13:40:18;25.90;99.90
14192;DHT22;7177;48.572;7.838;2023-05-23T13:42:46;25.50;99.90
14192;DHT22;7177;48.572;7.838;2023-05-23T13:45:11;25.50;99.90
14192;DHT22;7177;48.572;7.838;2023-05-23T13:47:37;25.60;99.90
14192;DHT22;7177;48.572;7.838;2023-05-23T13:50:04;25.50;99.90
14192;DHT22;7177;48.572;7.838;2023-05-23T13:52:30;26.00;99.90
14192;DHT22;7177;48.572;7.838;2023-05-23T13:54:55;26.00;99.90
14192;DHT22;7177;48.572;7.838;2023-05-23T13:57:21;25.80;99.90
14192;DHT22;7177;48.572;7.838;2023-05-23T13:59:46;25.30;99.90
14192;DHT22;7177;48.572;7.838;2023-05-23T14:02:12;25.10;99.90
14192;DHT22;7177;48.572;7.838;2023-05-23T14:04:37;24.80;99.90
14192;DHT22;7177;48.572;7.838;2023-05-23T14:07:03;24.70;99.90
14192;DHT22;7177;48.572;7.838;2023-05-23T14:09:29;24.70;99.90
14192;DHT22;7177;48.572;7.838;2023-05-23T14:11:54;24.50;99.90
14192;DHT22;7177;48.572;7.838;2023-05-23T14:14:20;25.10;99.90
14192;DHT22;7177;48.572;7.838;2023-05-23T14:16:45;25.90;99.90
14192;DHT22;7177;48.572;7.838;2023-05-23T14:19:11;26.30;99.90
14192;DHT22;7177;48.572;7.838;2023-05-23T14:21:36;26.00;99.90
14192;DHT22;7177;48.572;7.838;2023-05-23T14:24:03;25.60;99.90
14192;DHT22;7177;48.572;7.838;2023-05-23T14:26:28;25.00;99.90
14192;DHT22;7177;48.572;7.838;2023-05-23T14:28:54;24.60;99.90
14192;DHT22;7177;48.572;7.838;2023-05-23T14:31:20;24.30;99.90
14192;DHT22;7177;48.572;7.838;2023-05-23T14:33:46;23.80;99.90
14192;DHT22;7177;48.572;7.838;2023-05-23T14:36:12;23.40;99.90
14192;DHT22;7177;48.572;7.838;2023-05-23T14:38:37;23.50;99.90
14192;DHT22;7177;48.572;7.838;2023-05-23T14:41:04;23.20;99.90
14192;DHT22;7177;48.572;7.838;2023-05-23T14:43:29;23.20;99.90
14192;DHT22;7177;48.572;7.838;2023-05-23T14:45:55;23.30;99.90
14192;DHT22;7177;48.572;7.838;2023-05-23T14:48:20;23.70;99.90
14192;DHT22;7177;48.572;7.838;2023-05-23T14:50:46;24.40;99.90
14192;DHT22;7177;48.572;7.838;2023-05-23T14:53:12;24.60;99.90
14192;DHT22;7177;48.572;7.838;2023-05-23T14:55:37;24.40;99.90
14192;DHT22;7177;48.572;7.838;2023-05-23T14:58:03;24.00;99.90
14192;DHT22;7177;48.572;7.838;2023-05-23T15:00:29;24.00;99.90
14192;DHT22;7177;48.572;7.838;2023-05-23T15:02:55;23.80;99.90
14192;DHT22;7177;48.572;7.838;2023-05-23T15:05:21;23.80;99.90
14192;DHT22;7177;48.572;7.838;2023-05-23T15:07:46;23.90;99.90
14192;DHT22;7177;48.572;7.838;2023-05-23T15:10:12;24.00;99.90
14192;DHT22;7177;48.572;7.838;2023-05-23T15:12:37;24.60;99.90
14192;DHT22;7177;48.572;7.838;2023-05-23T15:15:03;24.90;99.90
14192;DHT22;7177;48.572;7.838;2023-05-23T15:17:32;25.10;99.90
14192;DHT22;7177;48.572;7.838;2023-05-23T15:19:58;25.20;99.90
14192;DHT22;7177;48.572;7.838;2023-05-23T15:22:24;25.30;99.90
14192;DHT22;7177;48.572;7.838;2023-05-23T15:24:49;25.40;99.90
14192;DHT22;7177;48.572;7.838;2023-05-23T15:27:15;25.30;99.90
14192;DHT22;7177;48.572;7.838;2023-05-23T15:29:41;25.40;99.90
14192;DHT22;7177;48.572;7.838;2023-05-23T15:32:07;25.40;99.90
14192;DHT22;7177;48.572;7.838;2023-05-23T15:34:33;25.60;99.90
14192;DHT22;7177;48.572;7.838;2023-05-23T15:36:58;25.70;99.90
14192;DHT22;7177;48.572;7.838;2023-05-23T15:39:27;25.70;99.90
14192;DHT22;7177;48.572;7.838;2023-05-23T15:41:53;25.70;99.90
14192;DHT22;7177;48.572;7.838;2023-05-23T15:44:19;25.90;99.90
14192;DHT22;7177;48.572;7.838;2023-05-23T15:46:49;26.10;99.90
14192;DHT22;7177;48.572;7.838;2023-05-23T15:49:15;26.10;99.90
14192;DHT22;7177;48.572;7.838;2023-05-23T15:51:41;25.90;99.90